sensor_id;sensor_type;location;lat;lon;timestamp;P1;durP1;ratioP1;P2;durP2;ratioP2
54197;SDS011;40105;52.366;17.000;2023-03-20T00:00:38;110.03;;;41.50;;
54197;SDS011;40105;52.366;17.000;2023-03-20T00:03:05;106.47;;;39.70;;
54197;SDS011;40105;52.366;17.000;2023-03-20T00:05:30;106.57;;;40.63;;
54197;SDS011;40105;52.366;17.000;2023-03-20T00:07:56;114.53;;;42.50;;
54197;SDS011;40105;52.366;17.000;2023-03-20T00:10:23;111.35;;;41.20;;
54197;SDS011;40105;52.366;17.000;2023-03-20T00:12:48;110.80;;;41.95;;
54197;SDS011;40105;52.366;17.000;2023-03-20T00:15:27;114.83;;;42.53;;
54197;SDS011;40105;52.366;17.000;2023-03-20T00:17:53;142.15;;;46.22;;
54197;SDS011;40105;52.366;17.000;2023-03-20T00:20:19;139.75;;;48.30;;
54197;SDS011;40105;52.366;17.000;2023-03-20T00:22:44;114.88;;;46.78;;
54197;SDS011;40105;52.366;17.000;2023-03-20T00:25:13;134.07;;;46.47;;
54197;SDS011;40105;52.366;17.000;2023-03-20T00:27:40;154.90;;;48.75;;
54197;SDS011;40105;52.366;17.000;2023-03-20T00:30:27;139.77;;;50.17;;
54197;SDS011;40105;52.366;17.000;2023-03-20T00:32:53;125.18;;;48.85;;
54197;SDS011;40105;52.366;17.000;2023-03-20T00:35:28;159.25;;;50.88;;
54197;SDS011;40105;52.366;17.000;2023-03-20T00:37:55;145.50;;;51.63;;
54197;SDS011;40105;52.366;17.000;2023-03-20T00:40:20;133.93;;;51.03;;
54197;SDS011;40105;52.366;17.000;2023-03-20T00:42:46;142.40;;;52.90;;
54197;SDS011;40105;52.366;17.000;2023-03-20T00:45:14;155.85;;;55.58;;
54197;SDS011;40105;52.366;17.000;2023-03-20T00:47:40;141.02;;;52.90;;
54197;SDS011;40105;52.366;17.000;2023-03-20T00:50:12;144.50;;;53.17;;
54197;SDS011;40105;52.366;17.000;2023-03-20T00:52:39;149.13;;;55.63;;
54197;SDS011;40105;52.366;17.000;2023-03-20T00:55:04;140.43;;;53.20;;
54197;SDS011;40105;52.366;17.000;2023-03-20T00:57:29;147.30;;;55.77;;
54197;SDS011;40105;52.366;17.000;2023-03-20T01:00:03;163.07;;;57.88;;
54197;SDS011;40105;52.366;17.000;2023-03-20T01:02:29;156.95;;;54.03;;
54197;SDS011;40105;52.366;17.000;2023-03-20T01:04:55;156.57;;;55.10;;
54197;SDS011;40105;52.366;17.000;2023-03-20T01:07:20;161.45;;;56.03;;
54197;SDS011;40105;52.366;17.000;2023-03-20T01:09:46;149.32;;;55.58;;
54197;SDS011;40105;52.366;17.000;2023-03-20T01:12:11;164.95;;;58.58;;
54197;SDS011;40105;52.366;17.000;2023-03-20T01:14:37;161.93;;;56.58;;
54197;SDS011;40105;52.366;17.000;2023-03-20T01:17:02;145.53;;;54.53;;
54197;SDS011;40105;52.366;17.000;2023-03-20T01:19:27;150.77;;;53.78;;
54197;SDS011;40105;52.366;17.000;2023-03-20T01:21:52;164.27;;;58.63;;
54197;SDS011;40105;52.366;17.000;2023-03-20T01:24:18;176.43;;;56.87;;
54197;SDS011;40105;52.366;17.000;2023-03-20T01:26:43;153.77;;;57.33;;
54197;SDS011;40105;52.366;17.000;2023-03-20T01:29:42;152.68;;;56.50;;
54197;SDS011;40105;52.366;17.000;2023-03-20T01:32:00;162.70;;;56.22;;
54197;SDS011;40105;52.366;17.000;2023-03-20T01:34:25;144.67;;;52.83;;
54197;SDS011;40105;52.366;17.000;2023-03-20T01:36:52;152.82;;;55.42;;
54197;SDS011;40105;52.366;17.000;2023-03-20T01:39:18;147.55;;;55.72;;
54197;SDS011;40105;52.366;17.000;2023-03-20T01:41:45;156.85;;;57.35;;
54197;SDS011;40105;52.366;17.000;2023-03-20T01:44:22;142.77;;;54.28;;
54197;SDS011;40105;52.366;17.000;2023-03-20T01:46:48;140.30;;;51.88;;
54197;SDS011;40105;52.366;17.000;2023-03-20T01:51:45;146.32;;;55.38;;
54197;SDS011;40105;52.366;17.000;2023-03-20T01:54:22;145.43;;;53.45;;
54197;SDS011;40105;52.366;17.000;2023-03-20T01:59:14;136.00;;;51.88;;
54197;SDS011;40105;52.366;17.000;2023-03-20T02:01:41;151.93;;;54.03;;
54197;SDS011;40105;52.366;17.000;2023-03-20T02:04:06;157.63;;;54.83;;
54197;SDS011;40105;52.366;17.000;2023-03-20T02:06:33;142.50;;;52.75;;
54197;SDS011;40105;52.366;17.000;2023-03-20T02:08:58;153.10;;;55.22;;
54197;SDS011;40105;52.366;17.000;2023-03-20T02:11:23;151.03;;;55.03;;
54197;SDS011;40105;52.366;17.000;2023-03-20T02:13:50;167.32;;;54.53;;
54197;SDS011;40105;52.366;17.000;2023-03-20T02:16:16;158.43;;;52.42;;
54197;SDS011;40105;52.366;17.000;2023-03-20T02:18:45;142.30;;;52.22;;
54197;SDS011;40105;52.366;17.000;2023-03-20T02:26:28;135.10;;;53.53;;
54197;SDS011;40105;52.366;17.000;2023-03-20T02:29:19;151.93;;;52.55;;
54197;SDS011;40105;52.366;17.000;2023-03-20T02:36:46;124.53;;;48.60;;
54197;SDS011;40105;52.366;17.000;2023-03-20T02:41:44;140.20;;;48.50;;
54197;SDS011;40105;52.366;17.000;2023-03-20T02:44:18;127.53;;;47.97;;
54197;SDS011;40105;52.366;17.000;2023-03-20T02:46:53;132.00;;;48.78;;
54197;SDS011;40105;52.366;17.000;2023-03-20T02:57:15;139.85;;;59.75;;
54197;SDS011;40105;52.366;17.000;2023-03-20T03:02:08;139.45;;;57.97;;
54197;SDS011;40105;52.366;17.000;2023-03-20T03:04:34;155.57;;;56.40;;
54197;SDS011;40105;52.366;17.000;2023-03-20T03:07:01;155.68;;;55.28;;
54197;SDS011;40105;52.366;17.000;2023-03-20T03:09:32;137.55;;;51.78;;
54197;SDS011;40105;52.366;17.000;2023-03-20T03:14:29;126.80;;;51.63;;
54197;SDS011;40105;52.366;17.000;2023-03-20T03:16:56;149.07;;;53.47;;
54197;SDS011;40105;52.366;17.000;2023-03-20T03:19:23;134.60;;;50.05;;
54197;SDS011;40105;52.366;17.000;2023-03-20T03:21:50;110.93;;;49.00;;
54197;SDS011;40105;52.366;17.000;2023-03-20T03:24:22;131.73;;;50.72;;
54197;SDS011;40105;52.366;17.000;2023-03-20T03:26:51;132.65;;;51.10;;
54197;SDS011;40105;52.366;17.000;2023-03-20T03:29:17;119.75;;;49.40;;
54197;SDS011;40105;52.366;17.000;2023-03-20T03:31:43;121.00;;;49.47;;
54197;SDS011;40105;52.366;17.000;2023-03-20T03:34:14;127.13;;;48.58;;
54197;SDS011;40105;52.366;17.000;2023-03-20T03:39:23;115.18;;;47.00;;
54197;SDS011;40105;52.366;17.000;2023-03-20T03:41:52;106.20;;;47.30;;
54197;SDS011;40105;52.366;17.000;2023-03-20T03:49:15;122.40;;;51.20;;
54197;SDS011;40105;52.366;17.000;2023-03-20T03:51:42;133.38;;;50.80;;
54197;SDS011;40105;52.366;17.000;2023-03-20T03:54:13;122.22;;;48.08;;
54197;SDS011;40105;52.366;17.000;2023-03-20T03:56:41;124.90;;;48.60;;
54197;SDS011;40105;52.366;17.000;2023-03-20T03:59:52;122.78;;;51.05;;
54197;SDS011;40105;52.366;17.000;2023-03-20T04:01:52;99.05;;;44.65;;
54197;SDS011;40105;52.366;17.000;2023-03-20T04:04:18;110.28;;;47.60;;
54197;SDS011;40105;52.366;17.000;2023-03-20T04:06:44;107.70;;;49.30;;
54197;SDS011;40105;52.366;17.000;2023-03-20T04:09:10;117.93;;;49.10;;
54197;SDS011;40105;52.366;17.000;2023-03-20T04:11:35;117.95;;;46.60;;
54197;SDS011;40105;52.366;17.000;2023-03-20T04:14:00;134.53;;;51.33;;
54197;SDS011;40105;52.366;17.000;2023-03-20T04:16:26;115.28;;;49.13;;
54197;SDS011;40105;52.366;17.000;2023-03-20T04:18:51;116.80;;;49.22;;
54197;SDS011;40105;52.366;17.000;2023-03-20T04:21:16;110.27;;;48.57;;
54197;SDS011;40105;52.366;17.000;2023-03-20T04:23:42;114.30;;;49.22;;
54197;SDS011;40105;52.366;17.000;2023-03-20T04:26:07;139.93;;;54.10;;
54197;SDS011;40105;52.366;17.000;2023-03-20T04:28:33;118.60;;;47.83;;
54197;SDS011;40105;52.366;17.000;2023-03-20T04:30:59;109.80;;;47.43;;
54197;SDS011;40105;52.366;17.000;2023-03-20T04:33:25;106.85;;;44.78;;
54197;SDS011;40105;52.366;17.000;2023-03-20T04:35:50;109.07;;;45.72;;
54197;SDS011;40105;52.366;17.000;2023-03-20T04:38:16;105.75;;;46.47;;
54197;SDS011;40105;52.366;17.000;2023-03-20T04:40:42;126.20;;;50.77;;
54197;SDS011;40105;52.366;17.000;2023-03-20T04:43:07;130.98;;;54.28;;
54197;SDS011;40105;52.366;17.000;2023-03-20T04:45:32;138.03;;;53.73;;
54197;SDS011;40105;52.366;17.000;2023-03-20T04:47:57;133.98;;;52.30;;
54197;SDS011;40105;52.366;17.000;2023-03-20T04:50:22;137.47;;;56.00;;
54197;SDS011;40105;52.366;17.000;2023-03-20T04:52:48;133.80;;;55.35;;
54197;SDS011;40105;52.366;17.000;2023-03-20T04:55:13;136.60;;;54.80;;
54197;SDS011;40105;52.366;17.000;2023-03-20T04:57:38;103.25;;;49.50;;
54197;SDS011;40105;52.366;17.000;2023-03-20T05:00:04;123.27;;;48.93;;
54197;SDS011;40105;52.366;17.000;2023-03-20T05:02:29;133.07;;;51.70;;
54197;SDS011;40105;52.366;17.000;2023-03-20T05:04:55;132.00;;;52.63;;
54197;SDS011;40105;52.366;17.000;2023-03-20T05:07:20;125.67;;;52.50;;
54197;SDS011;40105;52.366;17.000;2023-03-20T05:09:45;115.10;;;50.77;;
54197;SDS011;40105;52.366;17.000;2023-03-20T05:12:10;116.80;;;47.15;;
54197;SDS011;40105;52.366;17.000;2023-03-20T05:14:36;119.37;;;49.47;;
54197;SDS011;40105;52.366;17.000;2023-03-20T05:17:01;110.87;;;47.17;;
54197;SDS011;40105;52.366;17.000;2023-03-20T05:19:26;112.77;;;44.43;;
54197;SDS011;40105;52.366;17.000;2023-03-20T05:21:51;130.10;;;51.90;;
54197;SDS011;40105;52.366;17.000;2023-03-20T05:24:17;123.32;;;52.95;;
54197;SDS011;40105;52.366;17.000;2023-03-20T05:26:42;125.03;;;53.33;;
54197;SDS011;40105;52.366;17.000;2023-03-20T05:29:07;113.37;;;47.33;;
54197;SDS011;40105;52.366;17.000;2023-03-20T05:31:32;105.60;;;45.63;;
54197;SDS011;40105;52.366;17.000;2023-03-20T05:33:57;116.33;;;49.67;;
54197;SDS011;40105;52.366;17.000;2023-03-20T05:36:23;98.27;;;44.20;;
54197;SDS011;40105;52.366;17.000;2023-03-20T05:38:48;114.90;;;49.83;;
54197;SDS011;40105;52.366;17.000;2023-03-20T05:41:13;109.77;;;47.13;;
54197;SDS011;40105;52.366;17.000;2023-03-20T05:43:38;107.80;;;46.23;;
54197;SDS011;40105;52.366;17.000;2023-03-20T05:46:03;114.43;;;48.47;;
54197;SDS011;40105;52.366;17.000;2023-03-20T05:48:29;126.57;;;49.88;;
54197;SDS011;40105;52.366;17.000;2023-03-20T05:50:54;134.43;;;51.93;;
54197;SDS011;40105;52.366;17.000;2023-03-20T05:53:19;108.67;;;48.90;;
54197;SDS011;40105;52.366;17.000;2023-03-20T05:55:45;98.28;;;46.42;;
54197;SDS011;40105;52.366;17.000;2023-03-20T05:58:10;84.90;;;43.07;;
54197;SDS011;40105;52.366;17.000;2023-03-20T06:00:36;112.38;;;54.15;;
54197;SDS011;40105;52.366;17.000;2023-03-20T06:03:01;98.47;;;46.10;;
54197;SDS011;40105;52.366;17.000;2023-03-20T06:05:26;103.53;;;43.90;;
54197;SDS011;40105;52.366;17.000;2023-03-20T06:07:51;93.23;;;43.47;;
54197;SDS011;40105;52.366;17.000;2023-03-20T06:10:16;103.53;;;44.67;;
54197;SDS011;40105;52.366;17.000;2023-03-20T06:12:44;111.30;;;45.35;;
54197;SDS011;40105;52.366;17.000;2023-03-20T06:15:09;122.20;;;47.07;;
54197;SDS011;40105;52.366;17.000;2023-03-20T06:17:35;99.90;;;48.00;;
54197;SDS011;40105;52.366;17.000;2023-03-20T06:20:00;121.93;;;54.53;;
54197;SDS011;40105;52.366;17.000;2023-03-20T06:22:25;106.32;;;48.42;;
54197;SDS011;40105;52.366;17.000;2023-03-20T06:24:51;119.03;;;53.33;;
54197;SDS011;40105;52.366;17.000;2023-03-20T06:27:16;110.18;;;54.42;;
54197;SDS011;40105;52.366;17.000;2023-03-20T06:29:42;119.27;;;54.23;;
54197;SDS011;40105;52.366;17.000;2023-03-20T06:32:07;122.97;;;54.07;;
54197;SDS011;40105;52.366;17.000;2023-03-20T06:34:32;121.05;;;52.85;;
54197;SDS011;40105;52.366;17.000;2023-03-20T06:36:58;157.17;;;57.53;;
54197;SDS011;40105;52.366;17.000;2023-03-20T06:39:23;120.03;;;53.47;;
54197;SDS011;40105;52.366;17.000;2023-03-20T06:41:48;124.15;;;59.95;;
54197;SDS011;40105;52.366;17.000;2023-03-20T06:44:13;120.13;;;58.28;;
54197;SDS011;40105;52.366;17.000;2023-03-20T06:46:39;110.95;;;54.10;;
54197;SDS011;40105;52.366;17.000;2023-03-20T06:49:04;120.67;;;55.20;;
54197;SDS011;40105;52.366;17.000;2023-03-20T06:51:30;127.55;;;55.42;;
54197;SDS011;40105;52.366;17.000;2023-03-20T06:53:55;125.47;;;52.92;;
54197;SDS011;40105;52.366;17.000;2023-03-20T06:56:20;129.63;;;51.40;;
54197;SDS011;40105;52.366;17.000;2023-03-20T06:58:45;118.97;;;49.97;;
54197;SDS011;40105;52.366;17.000;2023-03-20T07:01:12;116.83;;;49.10;;
54197;SDS011;40105;52.366;17.000;2023-03-20T07:03:38;108.03;;;52.45;;
54197;SDS011;40105;52.366;17.000;2023-03-20T07:06:04;124.75;;;63.45;;
54197;SDS011;40105;52.366;17.000;2023-03-20T07:08:29;115.97;;;57.90;;
54197;SDS011;40105;52.366;17.000;2023-03-20T07:10:54;109.27;;;51.23;;
54197;SDS011;40105;52.366;17.000;2023-03-20T07:13:19;119.30;;;50.97;;
54197;SDS011;40105;52.366;17.000;2023-03-20T07:15:44;113.73;;;51.07;;
54197;SDS011;40105;52.366;17.000;2023-03-20T07:18:09;106.87;;;49.43;;
54197;SDS011;40105;52.366;17.000;2023-03-20T07:20:35;121.20;;;50.70;;
54197;SDS011;40105;52.366;17.000;2023-03-20T07:23:00;107.23;;;47.73;;
54197;SDS011;40105;52.366;17.000;2023-03-20T07:25:25;99.57;;;48.67;;
54197;SDS011;40105;52.366;17.000;2023-03-20T07:27:50;91.60;;;44.37;;
54197;SDS011;40105;52.366;17.000;2023-03-20T07:30:16;103.83;;;43.57;;
54197;SDS011;40105;52.366;17.000;2023-03-20T07:32:42;90.35;;;41.03;;
54197;SDS011;40105;52.366;17.000;2023-03-20T07:35:07;82.53;;;40.65;;
54197;SDS011;40105;52.366;17.000;2023-03-20T07:37:33;97.63;;;47.22;;
54197;SDS011;40105;52.366;17.000;2023-03-20T07:39:58;92.00;;;42.73;;
54197;SDS011;40105;52.366;17.000;2023-03-20T07:42:23;92.73;;;46.10;;
54197;SDS011;40105;52.366;17.000;2023-03-20T07:44:48;107.33;;;46.40;;
54197;SDS011;40105;52.366;17.000;2023-03-20T07:47:13;95.87;;;44.07;;
54197;SDS011;40105;52.366;17.000;2023-03-20T07:49:39;91.85;;;44.00;;
54197;SDS011;40105;52.366;17.000;2023-03-20T07:52:05;88.93;;;43.35;;
54197;SDS011;40105;52.366;17.000;2023-03-20T07:54:30;86.77;;;43.13;;
54197;SDS011;40105;52.366;17.000;2023-03-20T07:56:55;90.30;;;40.77;;
54197;SDS011;40105;52.366;17.000;2023-03-20T07:59:20;97.33;;;45.97;;
54197;SDS011;40105;52.366;17.000;2023-03-20T08:01:46;107.05;;;51.25;;
54197;SDS011;40105;52.366;17.000;2023-03-20T08:04:11;112.10;;;50.60;;
54197;SDS011;40105;52.366;17.000;2023-03-20T08:06:36;108.73;;;51.40;;
54197;SDS011;40105;52.366;17.000;2023-03-20T08:09:03;92.30;;;42.88;;
54197;SDS011;40105;52.366;17.000;2023-03-20T08:11:29;88.18;;;44.40;;
54197;SDS011;40105;52.366;17.000;2023-03-20T08:13:54;107.47;;;44.47;;
54197;SDS011;40105;52.366;17.000;2023-03-20T08:16:19;107.72;;;45.83;;
54197;SDS011;40105;52.366;17.000;2023-03-20T08:18:44;97.70;;;44.67;;
54197;SDS011;40105;52.366;17.000;2023-03-20T08:21:09;114.27;;;49.57;;
54197;SDS011;40105;52.366;17.000;2023-03-20T08:23:35;90.90;;;41.67;;
54197;SDS011;40105;52.366;17.000;2023-03-20T08:26:00;87.47;;;43.57;;
54197;SDS011;40105;52.366;17.000;2023-03-20T08:28:25;94.70;;;45.03;;
54197;SDS011;40105;52.366;17.000;2023-03-20T08:30:50;87.17;;;42.40;;
54197;SDS011;40105;52.366;17.000;2023-03-20T08:33:16;85.10;;;42.83;;
54197;SDS011;40105;52.366;17.000;2023-03-20T08:35:41;98.93;;;46.40;;
54197;SDS011;40105;52.366;17.000;2023-03-20T08:38:08;99.95;;;47.28;;
54197;SDS011;40105;52.366;17.000;2023-03-20T08:40:35;102.53;;;48.30;;
54197;SDS011;40105;52.366;17.000;2023-03-20T08:43:00;93.70;;;45.70;;
54197;SDS011;40105;52.366;17.000;2023-03-20T08:45:25;90.17;;;45.43;;
54197;SDS011;40105;52.366;17.000;2023-03-20T08:47:50;91.60;;;42.90;;
54197;SDS011;40105;52.366;17.000;2023-03-20T08:50:16;89.75;;;42.55;;
54197;SDS011;40105;52.366;17.000;2023-03-20T08:52:41;79.43;;;40.50;;
54197;SDS011;40105;52.366;17.000;2023-03-20T08:55:11;77.75;;;41.85;;
54197;SDS011;40105;52.366;17.000;2023-03-20T08:57:36;89.32;;;39.33;;
54197;SDS011;40105;52.366;17.000;2023-03-20T09:00:03;86.28;;;39.70;;
54197;SDS011;40105;52.366;17.000;2023-03-20T09:02:28;69.93;;;38.22;;
54197;SDS011;40105;52.366;17.000;2023-03-20T09:04:53;69.83;;;37.47;;
54197;SDS011;40105;52.366;17.000;2023-03-20T09:07:19;73.80;;;35.87;;
54197;SDS011;40105;52.366;17.000;2023-03-20T09:09:45;64.18;;;36.08;;
54197;SDS011;40105;52.366;17.000;2023-03-20T09:12:11;61.53;;;34.23;;
54197;SDS011;40105;52.366;17.000;2023-03-20T09:14:36;58.90;;;30.17;;
54197;SDS011;40105;52.366;17.000;2023-03-20T09:17:02;66.05;;;33.40;;
54197;SDS011;40105;52.366;17.000;2023-03-20T09:19:27;57.97;;;31.07;;
54197;SDS011;40105;52.366;17.000;2023-03-20T09:21:52;52.77;;;29.90;;
54197;SDS011;40105;52.366;17.000;2023-03-20T09:24:17;53.80;;;29.97;;
54197;SDS011;40105;52.366;17.000;2023-03-20T09:26:43;48.58;;;26.88;;
54197;SDS011;40105;52.366;17.000;2023-03-20T09:29:08;53.87;;;27.90;;
54197;SDS011;40105;52.366;17.000;2023-03-20T09:31:33;49.20;;;28.37;;
54197;SDS011;40105;52.366;17.000;2023-03-20T09:33:58;66.17;;;31.90;;
54197;SDS011;40105;52.366;17.000;2023-03-20T09:36:23;45.35;;;27.50;;
54197;SDS011;40105;52.366;17.000;2023-03-20T09:38:49;48.90;;;29.87;;
54197;SDS011;40105;52.366;17.000;2023-03-20T09:41:25;43.28;;;25.10;;
54197;SDS011;40105;52.366;17.000;2023-03-20T09:43:57;56.08;;;27.75;;
54197;SDS011;40105;52.366;17.000;2023-03-20T09:49:00;50.80;;;28.27;;
54197;SDS011;40105;52.366;17.000;2023-03-20T09:54:04;41.60;;;23.45;;
54197;SDS011;40105;52.366;17.000;2023-03-20T09:56:31;55.55;;;25.30;;
54197;SDS011;40105;52.366;17.000;2023-03-20T09:58:58;41.13;;;27.25;;
54197;SDS011;40105;52.366;17.000;2023-03-20T10:01:26;46.47;;;25.25;;
54197;SDS011;40105;52.366;17.000;2023-03-20T10:03:57;46.75;;;23.75;;
54197;SDS011;40105;52.366;17.000;2023-03-20T10:06:22;38.95;;;22.20;;
54197;SDS011;40105;52.366;17.000;2023-03-20T10:08:47;42.38;;;25.67;;
54197;SDS011;40105;52.366;17.000;2023-03-20T10:13:43;45.05;;;25.65;;
54197;SDS011;40105;52.366;17.000;2023-03-20T10:16:14;47.22;;;24.10;;
54197;SDS011;40105;52.366;17.000;2023-03-20T10:18:46;42.30;;;23.73;;
54197;SDS011;40105;52.366;17.000;2023-03-20T10:21:15;43.72;;;23.25;;
54197;SDS011;40105;52.366;17.000;2023-03-20T10:26:09;38.80;;;22.10;;
54197;SDS011;40105;52.366;17.000;2023-03-20T10:28:36;44.63;;;21.85;;
54197;SDS011;40105;52.366;17.000;2023-03-20T10:36:23;34.30;;;19.55;;
54197;SDS011;40105;52.366;17.000;2023-03-20T10:41:36;32.58;;;20.88;;
54197;SDS011;40105;52.366;17.000;2023-03-20T10:44:02;29.52;;;18.13;;
54197;SDS011;40105;52.366;17.000;2023-03-20T10:46:29;34.15;;;18.88;;
54197;SDS011;40105;52.366;17.000;2023-03-20T10:49:02;38.20;;;18.33;;
54197;SDS011;40105;52.366;17.000;2023-03-20T10:51:50;34.95;;;18.90;;
54197;SDS011;40105;52.366;17.000;2023-03-20T10:54:22;24.83;;;15.40;;
54197;SDS011;40105;52.366;17.000;2023-03-20T10:56:48;24.02;;;14.07;;
54197;SDS011;40105;52.366;17.000;2023-03-20T11:01:40;28.93;;;16.73;;
54197;SDS011;40105;52.366;17.000;2023-03-20T11:04:05;30.40;;;16.23;;
54197;SDS011;40105;52.366;17.000;2023-03-20T11:06:32;34.33;;;15.27;;
54197;SDS011;40105;52.366;17.000;2023-03-20T11:09:08;30.27;;;14.70;;
54197;SDS011;40105;52.366;17.000;2023-03-20T11:11:34;32.65;;;14.07;;
54197;SDS011;40105;52.366;17.000;2023-03-20T11:14:08;28.27;;;14.93;;
54197;SDS011;40105;52.366;17.000;2023-03-20T11:16:33;26.13;;;14.60;;
54197;SDS011;40105;52.366;17.000;2023-03-20T11:19:07;29.02;;;16.88;;
54197;SDS011;40105;52.366;17.000;2023-03-20T11:21:36;27.50;;;16.60;;
54197;SDS011;40105;52.366;17.000;2023-03-20T11:24:54;35.65;;;18.55;;
54197;SDS011;40105;52.366;17.000;2023-03-20T11:27:03;36.30;;;21.05;;
54197;SDS011;40105;52.366;17.000;2023-03-20T11:29:30;35.67;;;17.73;;
54197;SDS011;40105;52.366;17.000;2023-03-20T11:34:42;28.23;;;16.30;;
54197;SDS011;40105;52.366;17.000;2023-03-20T11:37:21;32.00;;;18.03;;
54197;SDS011;40105;52.366;17.000;2023-03-20T11:39:55;28.73;;;17.65;;
54197;SDS011;40105;52.366;17.000;2023-03-20T11:42:22;31.73;;;19.33;;
54197;SDS011;40105;52.366;17.000;2023-03-20T11:44:55;28.33;;;17.13;;
54197;SDS011;40105;52.366;17.000;2023-03-20T11:47:21;29.92;;;18.67;;
54197;SDS011;40105;52.366;17.000;2023-03-20T11:49:56;27.30;;;17.75;;
54197;SDS011;40105;52.366;17.000;2023-03-20T11:52:23;27.05;;;18.58;;
54197;SDS011;40105;52.366;17.000;2023-03-20T11:54:50;29.52;;;19.55;;
54197;SDS011;40105;52.366;17.000;2023-03-20T11:57:30;29.48;;;19.55;;
54197;SDS011;40105;52.366;17.000;2023-03-20T11:59:56;33.05;;;20.88;;
54197;SDS011;40105;52.366;17.000;2023-03-20T12:02:21;29.38;;;20.48;;
54197;SDS011;40105;52.366;17.000;2023-03-20T12:04:47;35.97;;;19.20;;
54197;SDS011;40105;52.366;17.000;2023-03-20T12:07:15;32.77;;;20.30;;
54197;SDS011;40105;52.366;17.000;2023-03-20T12:09:45;28.10;;;19.38;;
54197;SDS011;40105;52.366;17.000;2023-03-20T12:14:40;27.05;;;16.17;;
54197;SDS011;40105;52.366;17.000;2023-03-20T12:17:24;19.85;;;13.30;;
54197;SDS011;40105;52.366;17.000;2023-03-20T12:19:51;20.05;;;10.65;;
54197;SDS011;40105;52.366;17.000;2023-03-20T12:22:21;21.48;;;13.25;;
54197;SDS011;40105;52.366;17.000;2023-03-20T12:24:56;21.60;;;13.35;;
54197;SDS011;40105;52.366;17.000;2023-03-20T12:27:38;20.63;;;13.45;;
54197;SDS011;40105;52.366;17.000;2023-03-20T12:30:11;21.52;;;13.73;;
54197;SDS011;40105;52.366;17.000;2023-03-20T12:35:12;24.60;;;13.30;;
54197;SDS011;40105;52.366;17.000;2023-03-20T12:37:39;17.52;;;11.15;;
54197;SDS011;40105;52.366;17.000;2023-03-20T12:40:05;17.53;;;10.40;;
54197;SDS011;40105;52.366;17.000;2023-03-20T12:45:10;16.63;;;11.18;;
54197;SDS011;40105;52.366;17.000;2023-03-20T12:55:27;20.20;;;9.80;;
54197;SDS011;40105;52.366;17.000;2023-03-20T12:57:58;14.23;;;8.20;;
54197;SDS011;40105;52.366;17.000;2023-03-20T13:00:28;16.67;;;8.23;;
54197;SDS011;40105;52.366;17.000;2023-03-20T13:08:02;13.45;;;6.95;;
54197;SDS011;40105;52.366;17.000;2023-03-20T13:10:32;11.52;;;5.68;;
54197;SDS011;40105;52.366;17.000;2023-03-20T13:13:02;11.48;;;5.97;;
54197;SDS011;40105;52.366;17.000;2023-03-20T13:20:32;9.55;;;5.50;;
54197;SDS011;40105;52.366;17.000;2023-03-20T13:30:39;11.07;;;5.95;;
54197;SDS011;40105;52.366;17.000;2023-03-20T13:33:24;9.43;;;5.43;;
54197;SDS011;40105;52.366;17.000;2023-03-20T13:36:02;15.27;;;5.90;;
54197;SDS011;40105;52.366;17.000;2023-03-20T13:38:31;17.80;;;5.88;;
54197;SDS011;40105;52.366;17.000;2023-03-20T13:41:01;13.88;;;6.47;;
54197;SDS011;40105;52.366;17.000;2023-03-20T13:43:27;10.55;;;5.95;;
54197;SDS011;40105;52.366;17.000;2023-03-20T13:46:04;13.85;;;6.47;;
54197;SDS011;40105;52.366;17.000;2023-03-20T13:48:33;15.30;;;6.72;;
54197;SDS011;40105;52.366;17.000;2023-03-20T13:53:46;11.18;;;6.63;;
54197;SDS011;40105;52.366;17.000;2023-03-20T13:58:51;20.33;;;10.98;;
54197;SDS011;40105;52.366;17.000;2023-03-20T14:01:35;16.45;;;9.32;;
54197;SDS011;40105;52.366;17.000;2023-03-20T14:04:03;33.80;;;14.17;;
54197;SDS011;40105;52.366;17.000;2023-03-20T14:08:55;19.98;;;8.77;;
54197;SDS011;40105;52.366;17.000;2023-03-20T14:13:46;20.98;;;9.57;;
54197;SDS011;40105;52.366;17.000;2023-03-20T14:16:13;21.63;;;10.48;;
54197;SDS011;40105;52.366;17.000;2023-03-20T14:18:40;17.83;;;10.00;;
54197;SDS011;40105;52.366;17.000;2023-03-20T14:21:12;22.20;;;9.98;;
54197;SDS011;40105;52.366;17.000;2023-03-20T14:23:38;21.52;;;9.95;;
54197;SDS011;40105;52.366;17.000;2023-03-20T14:26:09;19.15;;;9.15;;
54197;SDS011;40105;52.366;17.000;2023-03-20T14:28:51;25.70;;;9.77;;
54197;SDS011;40105;52.366;17.000;2023-03-20T14:31:35;15.15;;;9.02;;
54197;SDS011;40105;52.366;17.000;2023-03-20T14:36:43;19.90;;;9.68;;
54197;SDS011;40105;52.366;17.000;2023-03-20T14:44:25;22.50;;;11.52;;
54197;SDS011;40105;52.366;17.000;2023-03-20T14:51:55;20.25;;;9.43;;
54197;SDS011;40105;52.366;17.000;2023-03-20T14:56:51;27.33;;;11.02;;
54197;SDS011;40105;52.366;17.000;2023-03-20T14:59:16;18.45;;;9.95;;
54197;SDS011;40105;52.366;17.000;2023-03-20T15:04:09;19.58;;;10.43;;
54197;SDS011;40105;52.366;17.000;2023-03-20T15:06:43;18.37;;;9.73;;
54197;SDS011;40105;52.366;17.000;2023-03-20T15:09:09;21.05;;;9.95;;
54197;SDS011;40105;52.366;17.000;2023-03-20T15:11:35;21.45;;;9.25;;
54197;SDS011;40105;52.366;17.000;2023-03-20T15:14:02;24.27;;;11.23;;
54197;SDS011;40105;52.366;17.000;2023-03-20T15:16:32;30.25;;;14.50;;
54197;SDS011;40105;52.366;17.000;2023-03-20T15:18:58;30.92;;;17.52;;
54197;SDS011;40105;52.366;17.000;2023-03-20T15:21:28;33.45;;;16.92;;
54197;SDS011;40105;52.366;17.000;2023-03-20T15:23:55;26.00;;;13.52;;
54197;SDS011;40105;52.366;17.000;2023-03-20T15:26:21;26.23;;;14.85;;
54197;SDS011;40105;52.366;17.000;2023-03-20T15:28:49;26.45;;;14.07;;
54197;SDS011;40105;52.366;17.000;2023-03-20T15:31:22;29.35;;;14.50;;
54197;SDS011;40105;52.366;17.000;2023-03-20T15:33:48;30.85;;;13.32;;
54197;SDS011;40105;52.366;17.000;2023-03-20T15:36:15;28.27;;;13.85;;
54197;SDS011;40105;52.366;17.000;2023-03-20T15:38:41;28.40;;;12.70;;
54197;SDS011;40105;52.366;17.000;2023-03-20T15:41:07;26.45;;;12.95;;
54197;SDS011;40105;52.366;17.000;2023-03-20T15:43:47;25.83;;;12.57;;
54197;SDS011;40105;52.366;17.000;2023-03-20T15:46:12;29.10;;;14.57;;
54197;SDS011;40105;52.366;17.000;2023-03-20T15:48:37;26.63;;;11.53;;
54197;SDS011;40105;52.366;17.000;2023-03-20T15:51:02;23.23;;;12.07;;
54197;SDS011;40105;52.366;17.000;2023-03-20T15:53:33;28.70;;;12.13;;
54197;SDS011;40105;52.366;17.000;2023-03-20T15:56:04;28.25;;;11.02;;
54197;SDS011;40105;52.366;17.000;2023-03-20T15:58:29;24.85;;;10.45;;
54197;SDS011;40105;52.366;17.000;2023-03-20T16:00:56;29.67;;;10.15;;
54197;SDS011;40105;52.366;17.000;2023-03-20T16:03:22;23.42;;;11.25;;
54197;SDS011;40105;52.366;17.000;2023-03-20T16:05:48;21.15;;;9.73;;
54197;SDS011;40105;52.366;17.000;2023-03-20T16:08:34;16.80;;;9.55;;